createdAt,value
2022-09-10T00:01:18.817Z,14.06
2022-09-10T00:03:46.155Z,15.45
2022-09-10T00:06:12.849Z,15.06
2022-09-10T00:08:39.764Z,14.25
2022-09-10T00:11:08.650Z,14.56
2022-09-10T00:13:35.408Z,15.29
2022-09-10T00:16:03.918Z,15.30
2022-09-10T00:18:30.748Z,14.09
2022-09-10T00:20:58.001Z,15.24
2022-09-10T00:23:26.412Z,14.81
2022-09-10T00:25:53.617Z,14.93
2022-09-10T00:28:21.557Z,14.30
2022-09-10T00:30:49.413Z,14.60
2022-09-10T00:33:16.501Z,15.18
2022-09-10T00:35:43.139Z,14.60
2022-09-10T00:38:10.108Z,14.31
2022-09-10T00:40:37.357Z,14.74
2022-09-10T00:43:04.087Z,14.00
2022-09-10T00:45:31.654Z,13.20
2022-09-10T00:48:01.040Z,14.32
2022-09-10T00:50:29.958Z,14.47
2022-09-10T00:53:02.495Z,14.23
2022-09-10T00:55:29.211Z,14.51
2022-09-10T00:57:57.136Z,14.52
2022-09-10T01:00:23.710Z,13.57
2022-09-10T01:02:50.414Z,14.03
2022-09-10T01:05:17.500Z,13.33
2022-09-10T01:07:44.668Z,13.94
2022-09-10T01:10:18.081Z,14.53
2022-09-10T01:13:03.280Z,14.89
2022-09-10T01:15:40.390Z,14.89
2022-09-10T01:22:01.071Z,13.90
2022-09-10T01:24:52.430Z,14.79
2022-09-10T01:27:37.300Z,14.78
2022-09-10T01:30:11.154Z,14.34
2022-09-10T01:32:50.272Z,14.74
2022-09-10T01:38:57.378Z,14.67
2022-09-10T01:41:25.937Z,14.07
2022-09-10T01:43:52.506Z,13.99
2022-09-10T01:46:31.231Z,14.54
2022-09-10T01:49:00.700Z,13.18
2022-09-10T01:51:39.280Z,14.37
2022-09-10T01:54:18.894Z,13.79
2022-09-10T01:57:24.582Z,14.35
2022-09-10T01:59:58.546Z,13.26
2022-09-10T02:02:46.299Z,14.22
2022-09-10T02:05:12.923Z,13.17
2022-09-10T02:07:39.617Z,12.30
2022-09-10T02:10:08.471Z,13.02
2022-09-10T02:12:44.249Z,12.52
2022-09-10T02:15:11.924Z,14.02
2022-09-10T02:17:38.809Z,13.29
2022-09-10T02:20:07.334Z,13.18
2022-09-10T02:22:36.346Z,13.36
2022-09-10T02:25:05.782Z,13.68
2022-09-10T02:27:33.368Z,13.92
2022-09-10T02:30:00.036Z,12.40
2022-09-10T02:32:26.696Z,12.41
2022-09-10T02:34:53.295Z,13.71
2022-09-10T02:37:37.425Z,13.23
2022-09-10T02:40:05.219Z,13.12
2022-09-10T02:42:32.035Z,13.15
2022-09-10T02:44:58.691Z,12.47
2022-09-10T02:47:25.336Z,12.72
2022-09-10T02:49:51.976Z,13.25
2022-09-10T02:52:18.620Z,12.61
2022-09-10T02:54:45.224Z,13.30
2022-09-10T02:57:12.321Z,13.29
2022-09-10T02:59:38.971Z,13.02
2022-09-10T03:02:05.578Z,13.50
2022-09-10T03:04:32.189Z,13.80
2022-09-10T03:06:58.795Z,14.20
2022-09-10T03:09:29.055Z,13.72
2022-09-10T03:11:55.686Z,12.90
2022-09-10T03:14:24.617Z,13.44
2022-09-10T03:16:51.287Z,12.58
2022-09-10T03:19:17.887Z,12.82
2022-09-10T03:21:47.550Z,13.37
2022-09-10T03:24:15.548Z,14.08
2022-09-10T03:26:43.438Z,13.77
2022-09-10T03:29:10.056Z,13.57
2022-09-10T03:31:37.070Z,13.83
2022-09-10T03:34:04.162Z,13.72
2022-09-10T03:36:31.473Z,11.92
2022-09-10T03:38:59.017Z,13.94
2022-09-10T03:41:28.364Z,13.44
2022-09-10T03:43:55.674Z,13.58
2022-09-10T03:46:22.697Z,13.80
2022-09-10T03:48:53.255Z,13.21
2022-09-10T03:51:21.773Z,14.02
2022-09-10T03:53:48.505Z,13.47
2022-09-10T03:56:17.186Z,13.47
2022-09-10T03:58:43.768Z,12.68
2022-09-10T04:01:10.343Z,13.33
2022-09-10T04:03:37.179Z,13.57
2022-09-10T04:06:03.990Z,13.72
2022-09-10T04:08:30.673Z,13.62
2022-09-10T04:11:01.961Z,13.67
2022-09-10T04:13:28.591Z,13.32
2022-09-10T04:15:55.805Z,12.11
2022-09-10T04:18:22.378Z,12.78
2022-09-10T04:20:49.518Z,13.16
2022-09-10T04:23:16.384Z,13.15
2022-09-10T04:25:42.942Z,12.92
2022-09-10T04:28:09.681Z,13.13
2022-09-10T04:30:36.435Z,13.86
2022-09-10T04:33:03.176Z,13.76
2022-09-10T04:35:29.791Z,13.61
2022-09-10T04:37:56.391Z,13.52
2022-09-10T04:40:23.006Z,13.75
2022-09-10T04:42:49.588Z,13.32
2022-09-10T04:45:16.362Z,13.56
2022-09-10T04:47:42.986Z,13.64
2022-09-10T04:50:09.984Z,13.51
2022-09-10T04:52:36.587Z,13.66
2022-09-10T04:55:03.177Z,13.68
2022-09-10T04:58:14.125Z,14.11
2022-09-10T05:00:40.810Z,13.95
2022-09-10T05:03:07.893Z,14.14
2022-09-10T05:05:34.554Z,13.42
2022-09-10T05:08:01.344Z,12.07
2022-09-10T05:10:28.131Z,13.80
2022-09-10T05:12:54.903Z,14.18
2022-09-10T05:15:31.742Z,14.04
2022-09-10T05:17:59.650Z,14.24
2022-09-10T05:20:27.682Z,13.74
2022-09-10T05:22:55.004Z,14.31
2022-09-10T05:25:21.764Z,14.30
2022-09-10T05:27:49.390Z,14.57
2022-09-10T05:30:17.407Z,14.47
2022-09-10T05:32:44.053Z,13.00
2022-09-10T05:35:10.747Z,14.41
2022-09-10T05:37:37.331Z,14.73
2022-09-10T05:40:06.294Z,14.89
2022-09-10T05:42:33.158Z,14.78
2022-09-10T05:44:59.752Z,14.23
2022-09-10T05:47:26.846Z,14.95
2022-09-10T05:49:53.631Z,15.20
2022-09-10T05:52:20.204Z,15.01
2022-09-10T05:54:46.808Z,15.20
2022-09-10T05:57:18.337Z,15.55
2022-09-10T05:59:46.242Z,15.58
2022-09-10T06:02:18.685Z,15.58
2022-09-10T06:04:48.516Z,15.65
2022-09-10T06:07:15.385Z,14.60
2022-09-10T06:09:42.005Z,15.91
2022-09-10T06:12:08.614Z,15.73
2022-09-10T06:14:35.184Z,15.77
2022-09-10T06:17:01.824Z,16.19
2022-09-10T06:19:28.484Z,15.84
2022-09-10T06:21:55.069Z,16.91
2022-09-10T06:24:22.626Z,15.89
2022-09-10T06:26:50.196Z,16.96
2022-09-10T06:29:19.001Z,17.52
2022-09-10T06:31:48.755Z,18.01
2022-09-10T06:34:18.964Z,18.01
2022-09-10T06:36:49.449Z,17.52
2022-09-10T06:39:16.828Z,18.16
2022-09-10T06:41:47.860Z,17.99
2022-09-10T06:44:16.314Z,18.17
2022-09-10T06:49:31.489Z,18.05
2022-09-10T06:51:58.164Z,17.09
2022-09-10T06:54:26.589Z,17.25
2022-09-10T06:56:53.275Z,18.03
2022-09-10T06:59:20.062Z,18.67
2022-09-10T07:01:48.386Z,18.62
2022-09-10T07:04:15.061Z,18.58
2022-09-10T07:06:41.831Z,18.46
2022-09-10T07:09:08.411Z,18.72
2022-09-10T07:11:39.219Z,18.82
2022-09-10T07:14:07.489Z,18.56
2022-09-10T07:16:34.520Z,17.87
2022-09-10T07:19:01.148Z,18.46
2022-09-10T07:21:27.876Z,18.65
2022-09-10T07:23:58.467Z,18.77
2022-09-10T07:26:25.547Z,18.59
2022-09-10T07:28:52.302Z,18.10
2022-09-10T07:31:23.395Z,18.85
2022-09-10T07:33:50.203Z,17.94
2022-09-10T07:36:17.584Z,18.29
2022-09-10T07:38:44.253Z,18.77
2022-09-10T07:41:29.563Z,19.59
2022-09-10T07:43:56.514Z,19.69
2022-09-10T07:46:24.954Z,20.02
2022-09-10T07:48:58.846Z,20.14
2022-09-10T07:51:26.286Z,20.67
2022-09-10T07:53:54.280Z,19.49
2022-09-10T07:56:21.376Z,21.16
2022-09-10T07:58:47.948Z,19.70
2022-09-10T08:01:14.691Z,20.94
2022-09-10T08:03:41.320Z,20.08
2022-09-10T08:06:08.539Z,20.94
2022-09-10T08:08:36.661Z,20.82
2022-09-10T08:11:12.283Z,20.72
2022-09-10T08:13:42.917Z,20.48
2022-09-10T08:16:12.388Z,19.94
2022-09-10T08:18:39.234Z,20.12
2022-09-10T08:21:06.229Z,20.38
2022-09-10T08:23:32.832Z,19.81
2022-09-10T08:25:59.464Z,19.81
2022-09-10T08:28:27.355Z,19.57
2022-09-10T08:31:02.339Z,20.10
2022-09-10T08:33:29.508Z,20.03
2022-09-10T08:35:57.217Z,19.90
2022-09-10T08:38:30.189Z,20.42
2022-09-10T08:40:57.732Z,20.27
2022-09-10T08:43:32.635Z,20.24
2022-09-10T08:46:00.694Z,18.88
2022-09-10T08:48:27.411Z,18.03
2022-09-10T08:50:55.372Z,19.64
2022-09-10T08:53:48.285Z,19.21
2022-09-10T08:56:16.732Z,18.87
2022-09-10T08:58:50.934Z,19.23
2022-09-10T09:01:40.509Z,19.07
2022-09-10T09:04:13.074Z,18.84
2022-09-10T09:06:50.789Z,19.28
2022-09-10T09:09:17.358Z,19.48
2022-09-10T09:12:09.239Z,19.44
2022-09-10T09:15:09.998Z,19.60
2022-09-10T09:18:01.574Z,19.72
2022-09-10T09:20:48.891Z,19.60
2022-09-10T09:23:23.142Z,19.81
2022-09-10T09:25:51.373Z,19.68
2022-09-10T09:28:45.355Z,20.24
2022-09-10T09:31:14.492Z,20.52
2022-09-10T09:33:41.198Z,20.55
2022-09-10T09:36:08.365Z,20.84
2022-09-10T09:38:41.247Z,21.03
2022-09-10T09:41:31.117Z,20.83
2022-09-10T09:44:03.396Z,21.35
2022-09-10T09:46:30.127Z,20.58
2022-09-10T09:48:58.524Z,21.12
2022-09-10T09:51:25.345Z,20.73
2022-09-10T09:54:18.479Z,20.92
2022-09-10T09:56:42.789Z,20.88
2022-09-10T09:59:15.051Z,20.59
2022-09-10T10:01:42.851Z,20.66
2022-09-10T10:04:20.235Z,19.88
2022-09-10T10:06:47.614Z,20.09
2022-09-10T10:09:20.961Z,20.17
2022-09-10T10:11:48.727Z,20.21
2022-09-10T10:14:25.821Z,20.32
2022-09-10T10:16:57.399Z,20.02
2022-09-10T10:19:34.568Z,20.22
2022-09-10T10:22:19.783Z,20.63
2022-09-10T10:24:48.102Z,20.42
2022-09-10T10:27:41.996Z,20.17
2022-09-10T10:30:11.586Z,20.98
2022-09-10T10:32:52.632Z,20.66
2022-09-10T10:35:41.933Z,21.13
2022-09-10T10:38:30.522Z,21.23
2022-09-10T10:41:33.834Z,21.35
2022-09-10T10:44:32.558Z,21.24
2022-09-10T10:47:21.475Z,21.43
2022-09-10T10:50:12.698Z,21.48
2022-09-10T10:52:51.468Z,21.49
2022-09-10T10:55:27.552Z,21.55
2022-09-10T10:58:20.456Z,21.30
2022-09-10T11:00:52.233Z,21.27
2022-09-10T11:03:37.368Z,21.49
2022-09-10T11:06:08.233Z,21.39
2022-09-10T11:08:39.213Z,20.18
2022-09-10T11:11:21.039Z,21.12
2022-09-10T11:14:01.843Z,21.58
2022-09-10T11:16:40.506Z,21.28
2022-09-10T11:19:17.886Z,21.74
2022-09-10T11:21:52.663Z,21.34
2022-09-10T11:24:34.308Z,21.59
2022-09-10T11:27:14.692Z,21.41
2022-09-10T11:29:42.914Z,20.21
2022-09-10T11:32:32.716Z,21.00
2022-09-10T11:35:22.129Z,21.66
2022-09-10T11:37:57.258Z,20.73
2022-09-10T11:40:43.975Z,21.55
2022-09-10T11:43:15.213Z,21.34
2022-09-10T11:45:49.274Z,20.40
2022-09-10T11:48:29.318Z,21.53
2022-09-10T11:51:03.496Z,21.44
2022-09-10T11:53:30.546Z,20.98
2022-09-10T11:56:20.419Z,21.50
2022-09-10T11:59:27.730Z,21.42
2022-09-10T12:02:21.682Z,21.50
2022-09-10T12:05:06.325Z,21.59
2022-09-10T12:07:37.022Z,21.60
2022-09-10T12:10:14.168Z,21.60
2022-09-10T12:12:45.896Z,21.23
2022-09-10T12:15:25.357Z,21.75
2022-09-10T12:18:25.641Z,21.72
2022-09-10T12:20:57.280Z,21.48
2022-09-10T12:23:31.950Z,21.46
2022-09-10T12:25:58.973Z,21.64
2022-09-10T12:28:45.808Z,21.51
2022-09-10T12:31:14.234Z,20.90
2022-09-10T12:33:43.974Z,21.71
2022-09-10T12:36:26.109Z,21.14
2022-09-10T12:39:16.575Z,21.85
2022-09-10T12:41:43.371Z,21.97
2022-09-10T12:44:28.655Z,22.06
2022-09-10T12:47:14.028Z,21.96
2022-09-10T12:50:20.514Z,21.94
2022-09-10T12:52:53.220Z,21.89
2022-09-10T12:55:43.663Z,21.84
2022-09-10T12:58:47.748Z,21.91
2022-09-10T13:01:36.633Z,21.68
2022-09-10T13:04:03.714Z,21.12
2022-09-10T13:06:34.849Z,21.05
2022-09-10T13:09:02.960Z,21.21
2022-09-10T13:11:29.618Z,20.98
2022-09-10T13:14:05.203Z,21.47
2022-09-10T13:16:31.912Z,21.40
2022-09-10T13:19:19.498Z,21.33
2022-09-10T13:21:46.668Z,21.25
2022-09-10T13:24:34.776Z,21.19
2022-09-10T13:27:23.938Z,20.93
2022-09-10T13:29:55.603Z,21.13
2022-09-10T13:32:39.111Z,20.98
2022-09-10T13:35:19.787Z,21.29
2022-09-10T13:38:03.059Z,21.18
2022-09-10T13:40:51.623Z,21.47
2022-09-10T13:43:27.248Z,21.52
2022-09-10T13:45:58.969Z,21.06
2022-09-10T13:48:26.313Z,21.20
2022-09-10T13:51:10.217Z,20.87
2022-09-10T13:53:42.259Z,21.08
2022-09-10T13:56:17.073Z,21.24
2022-09-10T13:58:48.832Z,20.77
2022-09-10T14:01:15.561Z,20.81
2022-09-10T14:03:42.267Z,20.83
2022-09-10T14:06:15.752Z,19.20
2022-09-10T14:08:50.156Z,19.98
2022-09-10T14:11:19.624Z,20.16
2022-09-10T14:14:12.901Z,20.53
2022-09-10T14:16:42.026Z,19.63
2022-09-10T14:19:29.028Z,20.01
2022-09-10T14:21:57.757Z,19.41
2022-09-10T14:24:30.822Z,19.97
2022-09-10T14:27:14.139Z,19.76
2022-09-10T14:29:41.582Z,18.38
2022-09-10T14:32:29.859Z,19.76
2022-09-10T14:34:56.485Z,19.70
2022-09-10T14:37:32.349Z,19.66
2022-09-10T14:40:17.453Z,19.45
2022-09-10T14:42:44.914Z,19.00
2022-09-10T14:45:39.533Z,19.62
2022-09-10T14:48:23.835Z,19.25
2022-09-10T14:50:50.407Z,19.21
2022-09-10T14:53:17.037Z,18.58
2022-09-10T14:55:43.661Z,18.86
2022-09-10T14:58:10.817Z,18.67
2022-09-10T15:00:37.650Z,18.73
2022-09-10T15:03:04.610Z,18.46
2022-09-10T15:05:31.335Z,18.81
2022-09-10T15:07:58.028Z,18.51
2022-09-10T15:10:24.654Z,17.90
2022-09-10T15:12:53.236Z,18.05
2022-09-10T15:15:20.214Z,17.50
2022-09-10T15:17:47.007Z,16.41
2022-09-10T15:20:15.047Z,17.52
2022-09-10T15:22:41.963Z,17.55
2022-09-10T15:25:33.847Z,16.95
2022-09-10T15:28:01.892Z,17.11
2022-09-10T15:30:28.593Z,16.13
2022-09-10T15:32:55.345Z,16.71
2022-09-10T15:35:23.338Z,16.84
2022-09-10T15:37:51.258Z,17.00
2022-09-10T15:40:17.877Z,16.40
2022-09-10T15:42:44.613Z,17.01
2022-09-10T15:45:12.295Z,16.45
2022-09-10T15:47:41.934Z,16.98
2022-09-10T15:50:10.147Z,16.94
2022-09-10T15:52:37.090Z,16.88
2022-09-10T15:55:03.919Z,17.01
2022-09-10T15:57:31.866Z,17.09
2022-09-10T15:59:58.435Z,16.97
2022-09-10T16:02:25.483Z,16.83
2022-09-10T16:04:55.356Z,17.09
2022-09-10T16:07:22.233Z,17.07
2022-09-10T16:09:48.834Z,17.14
2022-09-10T16:12:17.558Z,15.22
2022-09-10T16:14:45.266Z,16.86
2022-09-10T16:17:11.934Z,16.85
2022-09-10T16:19:38.512Z,16.36
2022-09-10T16:22:05.599Z,16.96
2022-09-10T16:24:32.458Z,17.07
2022-09-10T16:26:59.614Z,16.88
2022-09-10T16:29:26.236Z,16.46
2022-09-10T16:31:53.585Z,16.05
2022-09-10T16:34:20.258Z,17.16
2022-09-10T16:36:48.838Z,16.88
2022-09-10T16:39:16.311Z,16.84
2022-09-10T16:41:44.277Z,16.57
2022-09-10T16:44:11.363Z,16.68
2022-09-10T16:46:40.862Z,16.70
2022-09-10T16:49:08.791Z,16.29
2022-09-10T16:51:35.464Z,16.62
2022-09-10T16:54:03.285Z,15.15
2022-09-10T16:56:40.971Z,16.86
2022-09-10T16:59:08.101Z,16.50
2022-09-10T17:01:35.837Z,16.91
2022-09-10T17:04:03.512Z,16.69
2022-09-10T17:06:30.875Z,16.06
2022-09-10T17:08:58.466Z,16.54
2022-09-10T17:11:31.179Z,16.28
2022-09-10T17:13:58.829Z,16.37
2022-09-10T17:16:29.787Z,16.52
2022-09-10T17:18:58.053Z,15.82
2022-09-10T17:21:26.007Z,16.08
2022-09-10T17:23:53.546Z,15.56
2022-09-10T17:26:20.444Z,15.66
2022-09-10T17:28:58.045Z,15.43
2022-09-10T17:31:24.872Z,15.05
2022-09-10T17:33:51.636Z,14.78
2022-09-10T17:36:18.437Z,14.99
2022-09-10T17:38:45.990Z,13.73
2022-09-10T17:41:14.594Z,13.51
2022-09-10T17:43:42.675Z,14.42
2022-09-10T17:46:11.204Z,13.76
2022-09-10T17:48:38.060Z,14.03
2022-09-10T17:51:08.412Z,13.83
2022-09-10T17:53:55.328Z,15.16
2022-09-10T17:56:22.631Z,14.79
2022-09-10T17:58:49.520Z,14.74
2022-09-10T18:01:23.477Z,14.24
2022-09-10T18:03:50.639Z,13.71
2022-09-10T18:06:17.227Z,13.80
2022-09-10T18:08:44.147Z,14.63
2022-09-10T18:11:21.895Z,14.41
2022-09-10T18:13:52.505Z,14.06
2022-09-10T18:16:21.849Z,14.69
2022-09-10T18:18:55.870Z,14.19
2022-09-10T18:21:24.765Z,14.43
2022-09-10T18:23:53.005Z,12.81
2022-09-10T18:26:20.764Z,13.52
2022-09-10T18:28:57.698Z,14.25
2022-09-10T18:31:24.595Z,14.00
2022-09-10T18:33:51.207Z,13.85
2022-09-10T18:36:18.490Z,13.92
2022-09-10T18:38:45.219Z,13.74
2022-09-10T18:41:18.731Z,13.72
2022-09-10T18:43:46.576Z,13.76
2022-09-10T18:46:13.494Z,13.14
2022-09-10T18:48:40.081Z,13.39
2022-09-10T18:51:11.058Z,12.58
2022-09-10T18:53:38.652Z,12.17
2022-09-10T18:56:10.019Z,13.36
2022-09-10T18:58:37.147Z,13.08
2022-09-10T19:01:11.465Z,12.54
2022-09-10T19:03:42.424Z,13.36
2022-09-10T19:06:10.482Z,12.80
2022-09-10T19:08:37.828Z,12.52
2022-09-10T19:11:05.690Z,12.46
2022-09-10T19:13:32.554Z,12.96
2022-09-10T19:16:00.497Z,12.92
2022-09-10T19:18:28.059Z,12.91
2022-09-10T19:20:54.790Z,12.99
2022-09-10T19:23:21.471Z,11.66
2022-09-10T19:25:56.190Z,12.67
2022-09-10T19:28:23.300Z,12.39
2022-09-10T19:30:50.395Z,11.55
2022-09-10T19:33:17.930Z,12.29
2022-09-10T19:35:44.757Z,12.37
2022-09-10T19:38:27.474Z,12.62
2022-09-10T19:41:15.666Z,12.36
2022-09-10T19:43:52.846Z,12.28
2022-09-10T19:46:20.539Z,12.54
2022-09-10T19:48:48.428Z,12.63
2022-09-10T19:51:16.600Z,11.42
2022-09-10T19:53:43.276Z,12.73
2022-09-10T19:56:20.651Z,12.93
2022-09-10T19:58:49.816Z,12.89
2022-09-10T20:01:27.231Z,12.42
2022-09-10T20:03:54.142Z,12.68
2022-09-10T20:06:23.330Z,13.30
2022-09-10T20:08:50.582Z,12.70
2022-09-10T20:11:28.306Z,13.06
2022-09-10T20:14:00.012Z,12.78
2022-09-10T20:16:26.857Z,13.05
2022-09-10T20:18:53.562Z,13.28
2022-09-10T20:21:28.321Z,13.32
2022-09-10T20:23:58.200Z,12.70
2022-09-10T20:26:32.634Z,12.57
2022-09-10T20:29:05.261Z,12.95
2022-09-10T20:31:32.887Z,12.94
2022-09-10T20:34:00.429Z,13.24
2022-09-10T20:36:27.418Z,12.97
2022-09-10T20:38:54.509Z,13.34
2022-09-10T20:41:21.224Z,13.36
2022-09-10T20:43:51.800Z,13.06
2022-09-10T20:46:19.344Z,13.42
2022-09-10T20:48:49.281Z,13.30
2022-09-10T20:51:17.832Z,13.30
2022-09-10T20:53:44.662Z,13.14
2022-09-10T20:56:14.126Z,12.82
2022-09-10T20:58:41.073Z,12.31
2022-09-10T21:01:23.285Z,13.06
2022-09-10T21:03:50.778Z,13.43
2022-09-10T21:06:21.188Z,13.18
2022-09-10T21:08:47.866Z,12.90
2022-09-10T21:11:17.280Z,13.39
2022-09-10T21:13:48.182Z,13.07
2022-09-10T21:16:17.036Z,13.34
2022-09-10T21:18:52.122Z,12.96
2022-09-10T21:21:22.692Z,13.13
2022-09-10T21:23:53.926Z,12.86
2022-09-10T21:26:21.773Z,13.44
2022-09-10T21:28:48.488Z,12.76
2022-09-10T21:31:15.149Z,11.96
2022-09-10T21:33:42.396Z,12.92
2022-09-10T21:36:16.811Z,13.23
2022-09-10T21:39:02.411Z,13.22
2022-09-10T21:41:51.842Z,12.66
2022-09-10T21:44:20.029Z,13.04
2022-09-10T21:46:46.735Z,13.18
2022-09-10T21:49:13.511Z,12.88
2022-09-10T21:51:41.158Z,13.29
2022-09-10T21:54:07.984Z,13.26
2022-09-10T21:56:34.551Z,12.85
2022-09-10T21:59:01.234Z,12.65
2022-09-10T22:01:30.127Z,13.02
2022-09-10T22:03:58.024Z,13.13
2022-09-10T22:06:25.995Z,12.50
2022-09-10T22:09:00.303Z,13.06
2022-09-10T22:11:37.406Z,13.49
2022-09-10T22:14:05.562Z,13.01
2022-09-10T22:16:32.879Z,12.65
2022-09-10T22:19:01.597Z,13.30
2022-09-10T22:21:28.851Z,13.21
2022-09-10T22:23:55.408Z,13.05
2022-09-10T22:26:24.122Z,13.13
2022-09-10T22:28:54.560Z,13.18
2022-09-10T22:31:23.204Z,13.36
2022-09-10T22:33:54.843Z,13.34
2022-09-10T22:36:26.680Z,13.29
2022-09-10T22:38:54.707Z,13.21
2022-09-10T22:41:23.183Z,11.53
2022-09-10T22:43:50.362Z,13.33
2022-09-10T22:46:17.018Z,13.41
2022-09-10T22:48:43.775Z,13.03
2022-09-10T22:51:13.680Z,12.96
2022-09-10T22:53:40.598Z,13.13
2022-09-10T22:56:07.483Z,13.05
2022-09-10T22:58:34.146Z,12.47
2022-09-10T23:01:08.281Z,12.61
2022-09-10T23:03:34.965Z,13.03
2022-09-10T23:06:35.028Z,13.46
2022-09-10T23:09:06.746Z,13.04
2022-09-10T23:11:33.646Z,13.15
2022-09-10T23:14:02.269Z,13.48
2022-09-10T23:16:31.775Z,13.00
2022-09-10T23:19:00.348Z,13.08
2022-09-10T23:21:28.744Z,13.32
2022-09-10T23:23:57.100Z,13.53
2022-09-10T23:26:23.827Z,13.06
2022-09-10T23:28:50.473Z,13.19
2022-09-10T23:31:28.011Z,13.40
2022-09-10T23:33:58.423Z,13.59
2022-09-10T23:36:27.105Z,13.57
2022-09-10T23:38:53.660Z,11.58
2022-09-10T23:41:20.466Z,13.55
2022-09-10T23:43:47.425Z,13.07
2022-09-10T23:46:14.058Z,13.27
2022-09-10T23:48:42.617Z,13.23
2022-09-10T23:51:11.295Z,12.74
2022-09-10T23:53:37.951Z,13.14
2022-09-10T23:56:04.892Z,13.25
2022-09-10T23:58:31.872Z,12.78
